WetterOnline ( http://www.wetteronline.de )

Wetter aktuell Ostseebad Ahrenshoop

Aktuelles Wetter: Rostock-Warnemünde (10m)

6-stündlich | Neueste Meldungen
Ortszeit Temperatur Wetter
Do, 21.06. 2:00 17.8° C wolkenlos
Mi, 20.06. 20:00 25.5° C wolkenlos
Mi, 20.06. 14:00 24.4° C leicht bewölkt
Mi, 20.06. 8:00 16.5° C wolkenlos
Mi, 20.06. 2:00 15.6° C wolkenlos
Di, 19.06. 20:00 18.8° C wolkenlos
Di, 19.06. 14:00 20.1° C bewölkt
Di, 19.06. 8:00 16.4° C bedeckt
Ortszeit Temperatur Wetter
Do, 21.06. 2:30 17.6° C wolkenlos
Do, 21.06. 2:20 17.6° C wolkenlos
Do, 21.06. 2:10 17.6° C wolkenlos
Do, 21.06. 2:00 17.8° C wolkenlos
Do, 21.06. 1:40 17.9° C fast wolkenlos
Do, 21.06. 1:30 18.5° C leicht bewölkt
Do, 21.06. 1:00 19.0° C fast wolkenlos
Do, 21.06. 0:30 18.5° C leicht bewölkt
Do, 21.06. 0:00 18.2° C wolkenlos
Mi, 20.06. 23:30 18.5° C fast wolkenlos
Ortszeit Relative Feuchte Sichtweite
Do, 21.06. 2:00 89% 9 km
Mi, 20.06. 20:00 47% 30 km
Mi, 20.06. 14:00 52% 14 km
Mi, 20.06. 8:00 66% 35 km
Mi, 20.06. 2:00 75% 30 km
Di, 19.06. 20:00 68% 30 km
Di, 19.06. 14:00 77% 20 km
Di, 19.06. 8:00 86% 13 km
Ortszeit Relative Feuchte Sichtweite
Do, 21.06. 2:30 89% 7 km
Do, 21.06. 2:20 89% -
Do, 21.06. 2:10 89% -
Do, 21.06. 2:00 89% 9 km
Do, 21.06. 1:40 88% -
Do, 21.06. 1:30 85% 11 km
Do, 21.06. 1:00 83% 12 km
Do, 21.06. 0:30 88% 13 km
Do, 21.06. 0:00 94% 8 km
Mi, 20.06. 23:30 92% 8 km
Ortszeit Niederschlagsmenge Niederschlagsart
Do, 21.06. 2:00 0.0 l/m2 in 6 Std. -
Mi, 20.06. 20:00 0.0 l/m2 in 12 Std. -
Mi, 20.06. 14:00 0.0 l/m2 in 6 Std. -
Mi, 20.06. 8:00 0.0 l/m2 in 12 Std. -
Mi, 20.06. 2:00 0.0 l/m2 in 6 Std. -
Di, 19.06. 20:00 0.1 l/m2 in 12 Std. -
Di, 19.06. 14:00 0.1 l/m2 in 6 Std. Regen
Di, 19.06. 8:00 0.3 l/m2 in 12 Std. Regen
Ortszeit Niederschlagsmenge Niederschlagsart
Do, 21.06. 2:30 0.0 l/m2 in 1 Std. -
Do, 21.06. 2:20 keine Meldung -
Do, 21.06. 2:10 keine Meldung -
Do, 21.06. 2:00 0.0 l/m2 in 1 Std. -
Do, 21.06. 1:40 keine Meldung -
Do, 21.06. 1:30 0.0 l/m2 in 1 Std. -
Do, 21.06. 1:00 0.0 l/m2 in 1 Std. -
Do, 21.06. 0:30 0.0 l/m2 in 1 Std. -
Do, 21.06. 0:00 0.0 l/m2 in 1 Std. -
Mi, 20.06. 23:30 0.0 l/m2 in 1 Std. -
Ortszeit Stärke Spitze Richtung
km/h Bft. km/h Grad Sektor
Do, 21.06. 2:00 11 2 32 210° SW
Mi, 20.06. 20:00 13 3 44 220° SW
Mi, 20.06. 14:00 20 4 44 210° SW
Mi, 20.06. 8:00 11 2 40 210° SW
Mi, 20.06. 2:00 28 4 43 270° W
Di, 19.06. 20:00 29 5 43 300° NW
Di, 19.06. 14:00 26 4 44 280° W
Di, 19.06. 8:00 14 3 47 210° SW
Ortszeit Stärke Spitze Richtung
km/h Bft. km/h Grad Sektor
Do, 21.06. 2:30 11 2 18 220° SW
Do, 21.06. 2:20 11 2 - 220° SW
Do, 21.06. 2:10 9 2 - 220° SW
Do, 21.06. 2:00 11 2 18 210° SW
Do, 21.06. 1:40 11 2 - 210° SW
Do, 21.06. 1:30 11 2 18 220° SW
Do, 21.06. 1:00 13 3 28 260° W
Do, 21.06. 0:30 11 2 14 260° W
Do, 21.06. 0:00 7 2 18 280° W
Mi, 20.06. 23:30 9 2 17 300° NW
Ortszeit Untergrenze Bedeckung Gattung
total tief tief mittel hoch
Do, 21.06. 2:00 - 0/8 0/8 - - -
Mi, 20.06. 20:00 - 0/8 0/8 - - -
Mi, 20.06. 14:00 1260 m 3/8 3/8 - - -
Mi, 20.06. 8:00 - 0/8 0/8 - - -
Mi, 20.06. 2:00 - 0/8 0/8 - - -
Di, 19.06. 20:00 - 0/8 0/8 - - -
Di, 19.06. 14:00 810 m 7/8 7/8 - - -
Di, 19.06. 8:00 450 m 8/8 8/8 - - -
Ortszeit Bedeckungsgrad in Achtel und Wolkenuntergrenze
Do, 21.06. 2:30 keine Wolken
Do, 21.06. 2:20 keine Wolken
Do, 21.06. 2:10 keine Wolken
Do, 21.06. 2:00 keine Wolken
Do, 21.06. 1:40 1(8400m)
Do, 21.06. 1:30 1(1410m) 3(8400m)
Do, 21.06. 1:00 2(8400m)
Do, 21.06. 0:30 3(1500m) 3(1800m)
Do, 21.06. 0:00 keine Wolken
Mi, 20.06. 23:30 1(1800m)
Ortszeit Luftdruck NN (hPa) Tendenz (hPa in 3 Std.)
Do, 21.06. 2:00 1013 - 1,6
Mi, 20.06. 20:00 1015 - 2,1
Mi, 20.06. 14:00 1019 - 2,0
Mi, 20.06. 8:00 1022 - 0,5
Mi, 20.06. 2:00 1022 + 0,1
Di, 19.06. 20:00 1021 + 0,6
Di, 19.06. 14:00 1020 + 0,8
Di, 19.06. 8:00 1018 + 0,2
Ortszeit Luftdruck NN (hPa) Tendenz (hPa in 3 Std.)
Do, 21.06. 2:30 1013 - 1,7
Do, 21.06. 2:20 1013 keine Meldung
Do, 21.06. 2:10 1013 keine Meldung
Do, 21.06. 2:00 1013 - 1,6
Do, 21.06. 1:40 1013 keine Meldung
Do, 21.06. 1:30 1013 - 1,3
Do, 21.06. 1:00 1014 - 0,6
Do, 21.06. 0:30 1014 - 0,3
Do, 21.06. 0:00 1014 - 0,1
Mi, 20.06. 23:30 1015 0,0
Ortszeit Schneehöhe (cm)
Do, 21.06. 2:00 -
Mi, 20.06. 20:00 -
Mi, 20.06. 14:00 -
Mi, 20.06. 8:00 -
Mi, 20.06. 2:00 -
Di, 19.06. 20:00 -
Di, 19.06. 14:00 -
Di, 19.06. 8:00 -
Ortszeit Schneehöhe (cm)
Do, 21.06. 2:30 -
Do, 21.06. 2:20 -
Do, 21.06. 2:10 -
Do, 21.06. 2:00 -
Do, 21.06. 1:40 -
Do, 21.06. 1:30 -
Do, 21.06. 1:00 -
Do, 21.06. 0:30 -
Do, 21.06. 0:00 -
Mi, 20.06. 23:30 -
Link zu dieser Seite / Seite empfehlen

Das Wetter in ...